| time (UTC) | temp F | wind direction | speed MPH | gust MPH | rain 1hr in | rain 24hr in | rain mn in | humidity % | barometer mb |
| 20260906031333 | 75 | 72 | 0.0 | 0.0 | 0.00 | 0.35 | 0.35 | 83 | 1046.5 |
| 20260906030833 | 75 | 72 | 0.0 | 1.0 | 0.00 | 0.35 | 0.35 | 83 | 1046.5 |
| 20260906030328 | 75 | 71 | 2.0 | 2.0 | 0.00 | 0.35 | 0.35 | 83 | 1046.5 |
| 20260906025823 | 75 | 28 | 1.0 | 2.0 | 0.00 | 0.35 | 0.35 | 84 | 1046.6 |
| 20260906025317 | 75 | 333 | 0.0 | 0.0 | 0.00 | 0.35 | 0.35 | 84 | 1046.0 |
| 20260906024816 | 75 | 333 | 0.0 | 1.0 | 0.00 | 0.35 | 0.35 | 84 | 1046.4 |
| 20260906024315 | 74 | 333 | 0.0 | 1.0 | 0.00 | 0.35 | 0.35 | 84 | 1046.3 |
| 20260906023811 | 75 | 316 | 1.0 | 3.0 | 0.00 | 0.35 | 0.35 | 85 | 1046.6 |
| 20260906023306 | 76 | 326 | 2.0 | 3.0 | 0.00 | 0.35 | 0.35 | 83 | 1046.6 |
| 20260906022802 | 76 | 82 | 0.0 | 0.0 | 0.00 | 0.35 | 0.35 | 82 | 1046.1 |
| 20260906022256 | 76 | 82 | 0.0 | 0.0 | 0.00 | 0.35 | 0.35 | 82 | 1045.8 |
| 20260906021752 | 76 | 82 | 0.0 | 0.0 | 0.00 | 0.35 | 0.35 | 81 | 1045.9 |
| 20260906021251 | 76 | 82 | 0.0 | 0.0 | 0.00 | 0.35 | 0.35 | 81 | 1046.2 |
| 20260906020746 | 76 | 82 | 0.0 | 0.0 | 0.00 | 0.35 | 0.35 | 80 | 1046.2 |
| 20260906020246 | 77 | 82 | 0.0 | 1.0 | 0.00 | 0.35 | 0.35 | 81 | 1046.3 |
| 20260906015741 | 77 | 82 | 0.0 | 0.0 | 0.00 | 0.35 | 0.35 | 79 | 1046.0 |
| 20260906015239 | 77 | 82 | 0.0 | 1.0 | 0.00 | 0.35 | 0.35 | 78 | 1046.2 |
| 20260906014740 | 77 | 82 | 0.0 | 1.0 | 0.00 | 0.35 | 0.35 | 80 | 1046.2 |
| 20260906014235 | 77 | 82 | 0.0 | 0.0 | 0.00 | 0.35 | 0.35 | 79 | 1045.9 |
| 20260906013731 | 77 | 82 | 0.0 | 0.0 | 0.00 | 0.35 | 0.35 | 78 | 1046.0 |
| 20260906013231 | 78 | 82 | 0.0 | 0.0 | 0.00 | 0.35 | 0.35 | 77 | 1046.1 |
| 20260906012726 | 78 | 82 | 0.0 | 1.0 | 0.00 | 0.35 | 0.35 | 76 | 1045.9 |
| 20260906012221 | 78 | 82 | 2.0 | 2.0 | 0.00 | 0.35 | 0.35 | 77 | 1045.9 |
| 20260906011717 | 78 | 82 | 0.0 | 0.0 | 0.00 | 0.35 | 0.35 | 77 | 1045.9 |
| 20260906011211 | 78 | 82 | 1.0 | 1.0 | 0.00 | 0.35 | 0.35 | 77 | 1045.8 |
| 20260906010707 | 78 | 82 | 1.0 | 1.0 | 0.00 | 0.35 | 0.35 | 77 | 1045.7 |
| 20260906010203 | 78 | 82 | 1.0 | 1.0 | 0.00 | 0.35 | 0.35 | 77 | 1045.5 |
| 20260906005702 | 78 | 82 | 1.0 | 1.0 | 0.00 | 0.35 | 0.35 | 76 | 1045.4 |
| 20260906005202 | 79 | 82 | 0.0 | 1.0 | 0.00 | 0.35 | 0.35 | 75 | 1045.5 |
| 20260906004701 | 79 | 82 | 1.0 | 1.0 | 0.00 | 0.35 | 0.35 | 75 | 1045.6 |
| 20260906004156 | 79 | 82 | 0.0 | 1.0 | 0.00 | 0.35 | 0.35 | 74 | 1045.4 |
| 20260906003651 | 79 | 82 | 1.0 | 1.0 | 0.00 | 0.35 | 0.35 | 74 | 1045.4 |
| 20260906003147 | 80 | 82 | 1.0 | 2.0 | 0.00 | 0.35 | 0.35 | 74 | 1045.1 |
| 20260906002647 | 80 | 82 | 1.0 | 1.0 | 0.00 | 0.35 | 0.35 | 74 | 1045.0 |
| 20260906002142 | 81 | 82 | 0.0 | 0.0 | 0.00 | 0.35 | 0.35 | 73 | 1045.3 |
| 20260906001638 | 81 | 82 | 0.0 | 0.0 | 0.00 | 0.35 | 0.35 | 70 | 1045.6 |
| 20260906001137 | 82 | 82 | 0.0 | 0.0 | 0.00 | 0.35 | 0.35 | 69 | 1045.7 |
| 20260906000633 | 82 | 82 | 1.0 | 1.0 | 0.00 | 0.35 | 0.35 | 69 | 1045.5 |
| 20260906000129 | 83 | 82 | 2.0 | 2.0 | 0.00 | 0.35 | 0.35 | 68 | 1045.4 |
| 20260905235627 | 84 | 84 | 0.0 | 0.0 | 0.00 | 0.35 | 0.35 | 69 | 1045.8 |
| 20260905235122 | 84 | 73 | 2.0 | 3.0 | 0.00 | 0.35 | 0.35 | 69 | 1045.7 |
| 20260905234618 | 84 | 0 | 1.0 | 1.0 | 0.00 | 0.35 | 0.35 | 72 | 1045.8 |
| 20260905234114 | 84 | 298 | 0.0 | 0.0 | 0.00 | 0.35 | 0.35 | 71 | 1046.0 |
| 20260905233614 | 85 | 298 | 0.0 | 0.0 | 0.00 | 0.35 | 0.35 | 70 | 1045.7 |
| 20260905233108 | 85 | 298 | 0.0 | 0.0 | 0.00 | 0.35 | 0.35 | 70 | 1046.0 |
| 20260905232603 | 85 | 298 | 0.0 | 0.0 | 0.00 | 0.35 | 0.35 | 68 | 1045.9 |
| 20260905232059 | 86 | 298 | 0.0 | 1.0 | 0.00 | 0.35 | 0.35 | 69 | 1046.0 |
| 20260905231554 | 86 | 298 | 0.0 | 0.0 | 0.00 | 0.35 | 0.35 | 69 | 1046.1 |
| 20260905231050 | 86 | 298 | 0.0 | 0.0 | 0.00 | 0.35 | 0.35 | 68 | 1046.2 |
| 20260905230550 | 87 | 298 | 0.0 | 1.0 | 0.00 | 0.35 | 0.35 | 69 | 1045.9 |
| 20260905230048 | 87 | 298 | 2.0 | 2.0 | 0.00 | 0.35 | 0.35 | 64 | 1046.1 |
| 20260905225543 | 87 | 297 | 2.0 | 2.0 | 0.00 | 0.35 | 0.35 | 64 | 1045.9 |
| 20260905225038 | 88 | 297 | 1.0 | 2.0 | 0.00 | 0.35 | 0.35 | 65 | 1045.8 |
| 20260905224538 | 88 | 296 | 1.0 | 1.0 | 0.00 | 0.35 | 0.35 | 64 | 1045.9 |
| 20260905224037 | 88 | 296 | 1.0 | 1.0 | 0.00 | 0.35 | 0.35 | 62 | 1046.0 |
| 20260905223535 | 88 | 297 | 1.0 | 1.0 | 0.00 | 0.35 | 0.35 | 61 | 1045.7 |
| 20260905223031 | 89 | 308 | 1.0 | 1.0 | 0.00 | 0.35 | 0.35 | 63 | 1046.0 |
| 20260905222531 | 89 | 308 | 2.0 | 2.0 | 0.00 | 0.35 | 0.35 | 59 | 1045.9 |
| 20260905222026 | 90 | 318 | 2.0 | 3.0 | 0.00 | 0.35 | 0.35 | 57 | 1045.9 |
| 20260905221522 | 91 | 314 | 2.0 | 3.0 | 0.00 | 0.35 | 0.35 | 55 | 1045.9 |
| 20260905221018 | 91 | 321 | 1.0 | 3.0 | 0.00 | 0.35 | 0.35 | 55 | 1046.0 |
| 20260905220514 | 91 | 311 | 2.0 | 3.0 | 0.00 | 0.35 | 0.35 | 55 | 1045.7 |
| 20260905220010 | 90 | 315 | 2.0 | 4.0 | 0.00 | 0.35 | 0.35 | 56 | 1045.9 |
| 20260905215504 | 91 | 313 | 2.0 | 2.0 | 0.00 | 0.35 | 0.35 | 55 | 1045.9 |
| 20260905215000 | 92 | 319 | 2.0 | 2.0 | 0.00 | 0.35 | 0.35 | 54 | 1045.8 |
| 20260905214455 | 92 | 351 | 1.0 | 1.0 | 0.00 | 0.35 | 0.35 | 49 | 1045.9 |
| 20260905213955 | 92 | 325 | 2.0 | 3.0 | 0.00 | 0.35 | 0.35 | 54 | 1045.7 |
| 20260905213452 | 91 | 276 | 2.0 | 2.0 | 0.00 | 0.35 | 0.35 | 53 | 1045.6 |
| 20260905212947 | 91 | 309 | 2.0 | 3.0 | 0.00 | 0.35 | 0.35 | 51 | 1045.5 |
| 20260905212441 | 92 | 282 | 4.0 | 6.0 | 0.00 | 0.35 | 0.35 | 52 | 1045.5 |
| 20260905211941 | 92 | 283 | 4.0 | 4.0 | 0.00 | 0.35 | 0.35 | 51 | 1045.4 |
| 20260905211437 | 92 | 290 | 3.0 | 3.0 | 0.00 | 0.35 | 0.35 | 53 | 1045.4 |
| 20260905210932 | 91 | 247 | 2.0 | 3.0 | 0.00 | 0.35 | 0.35 | 50 | 1045.7 |
| 20260905210432 | 91 | 296 | 3.0 | 4.0 | 0.00 | 0.35 | 0.35 | 50 | 1045.7 |
| 20260905205932 | 91 | 253 | 3.0 | 3.0 | 0.00 | 0.35 | 0.35 | 52 | 1045.7 |
| 20260905205427 | 91 | 295 | 4.0 | 4.0 | 0.00 | 0.35 | 0.35 | 48 | 1045.6 |
| 20260905204926 | 92 | 299 | 4.0 | 6.0 | 0.00 | 0.35 | 0.35 | 48 | 1045.7 |
| 20260905204422 | 92 | 304 | 4.0 | 6.0 | 0.00 | 0.35 | 0.35 | 51 | 1045.9 |
| 20260905203921 | 92 | 123 | 1.0 | 2.0 | 0.00 | 0.35 | 0.35 | 50 | 1045.8 |
| 20260905203416 | 91 | 292 | 2.0 | 4.0 | 0.00 | 0.35 | 0.35 | 49 | 1045.8 |
| 20260905202912 | 92 | 270 | 3.0 | 3.0 | 0.00 | 0.35 | 0.35 | 48 | 1045.8 |
| 20260905202407 | 92 | 304 | 3.0 | 4.0 | 0.00 | 0.35 | 0.35 | 49 | 1046.1 |
| 20260905201902 | 92 | 260 | 0.0 | 1.0 | 0.00 | 0.35 | 0.35 | 49 | 1045.8 |
| 20260905201358 | 92 | 298 | 3.0 | 6.0 | 0.00 | 0.35 | 0.35 | 49 | 1046.1 |
| 20260905200857 | 92 | 311 | 4.0 | 4.0 | 0.00 | 0.35 | 0.35 | 50 | 1046.1 |
| 20260905200353 | 92 | 337 | 2.0 | 4.0 | 0.00 | 0.35 | 0.35 | 48 | 1046.4 |
| 20260905195851 | 92 | 309 | 3.0 | 3.0 | 0.00 | 0.35 | 0.35 | 48 | 1046.1 |
| 20260905195347 | 92 | 316 | 1.0 | 3.0 | 0.00 | 0.35 | 0.35 | 45 | 1046.4 |
| 20260905194842 | 91 | 294 | 3.0 | 6.0 | 0.00 | 0.35 | 0.35 | 50 | 1046.6 |
| 20260905194342 | 92 | 303 | 4.0 | 4.0 | 0.00 | 0.35 | 0.35 | 50 | 1046.5 |
| 20260905193841 | 92 | 342 | 1.0 | 3.0 | 0.00 | 0.35 | 0.35 | 48 | 1046.6 |
| 20260905193336 | 92 | 301 | 1.0 | 3.0 | 0.00 | 0.35 | 0.35 | 48 | 1046.5 |
| 20260905192832 | 92 | 307 | 2.0 | 3.0 | 0.00 | 0.35 | 0.35 | 47 | 1046.8 |
| 20260905192328 | 93 | 289 | 2.0 | 4.0 | 0.00 | 0.35 | 0.35 | 52 | 1046.9 |
| 20260905191827 | 93 | 247 | 2.0 | 4.0 | 0.00 | 0.35 | 0.35 | 51 | 1046.8 |
| 20260905191326 | 92 | 232 | 3.0 | 4.0 | 0.00 | 0.35 | 0.35 | 47 | 1046.9 |
| 20260905190825 | 92 | 223 | 3.0 | 3.0 | 0.00 | 0.35 | 0.35 | 51 | 1047.1 |
| 20260905190325 | 92 | 230 | 3.0 | 3.0 | 0.00 | 0.35 | 0.35 | 53 | 1047.1 |
| 20260905185824 | 92 | 278 | 2.0 | 3.0 | 0.00 | 0.35 | 0.35 | 49 | 1047.0 |
| 20260905185319 | 92 | 227 | 3.0 | 4.0 | 0.00 | 0.35 | 0.35 | 50 | 1047.1 |
| 20260905184818 | 92 | 219 | 2.0 | 4.0 | 0.00 | 0.35 | 0.35 | 49 | 1047.2 |
| 20260905184317 | 92 | 259 | 2.0 | 3.0 | 0.00 | 0.35 | 0.35 | 50 | 1047.3 |
| 20260905183815 | 92 | 228 | 4.0 | 4.0 | 0.00 | 0.35 | 0.35 | 51 | 1047.3 |
| 20260905183311 | 91 | 236 | 1.0 | 6.0 | 0.00 | 0.35 | 0.35 | 52 | 1047.3 |
| 20260905182806 | 91 | 202 | 3.0 | 3.0 | 0.00 | 0.35 | 0.35 | 51 | 1047.4 |
| 20260905182306 | 91 | 194 | 4.0 | 6.0 | 0.00 | 0.35 | 0.35 | 49 | 1047.5 |
| 20260905181801 | 91 | 237 | 4.0 | 6.0 | 0.00 | 0.35 | 0.35 | 52 | 1047.4 |
| 20260905181255 | 91 | 98 | 1.0 | 3.0 | 0.00 | 0.35 | 0.35 | 53 | 1047.6 |
| 20260905180754 | 90 | 212 | 1.0 | 3.0 | 0.00 | 0.35 | 0.35 | 54 | 1047.6 |
| 20260905180249 | 90 | 178 | 1.0 | 4.0 | 0.00 | 0.35 | 0.35 | 48 | 1047.8 |
| 20260905175744 | 90 | 205 | 4.0 | 7.0 | 0.00 | 0.35 | 0.35 | 50 | 1047.6 |
| 20260905175239 | 90 | 233 | 2.0 | 4.0 | 0.00 | 0.35 | 0.35 | 52 | 1047.9 |
| 20260905174734 | 90 | 234 | 1.0 | 3.0 | 0.00 | 0.35 | 0.35 | 52 | 1047.8 |
| 20260905174230 | 90 | 240 | 1.0 | 3.0 | 0.00 | 0.35 | 0.35 | 53 | 1047.9 |
| 20260905173726 | 90 | 209 | 2.0 | 6.0 | 0.00 | 0.35 | 0.35 | 50 | 1047.9 |
| 20260905173221 | 90 | 216 | 1.0 | 2.0 | 0.00 | 0.35 | 0.35 | 53 | 1048.0 |
| 20260905172720 | 89 | 138 | 1.0 | 3.0 | 0.00 | 0.35 | 0.35 | 52 | 1048.1 |
| 20260905172214 | 89 | 208 | 2.0 | 4.0 | 0.00 | 0.35 | 0.35 | 53 | 1048.0 |
| 20260905171710 | 89 | 200 | 2.0 | 4.0 | 0.00 | 0.35 | 0.35 | 52 | 1048.2 |
| 20260905171207 | 88 | 225 | 0.0 | 1.0 | 0.00 | 0.35 | 0.35 | 55 | 1048.3 |
| 20260905170704 | 87 | 229 | 3.0 | 3.0 | 0.00 | 0.35 | 0.35 | 59 | 1048.2 |
| 20260905170203 | 87 | 220 | 2.0 | 3.0 | 0.00 | 0.35 | 0.35 | 56 | 1048.3 |
| 20260905165703 | 87 | 203 | 4.0 | 4.0 | 0.00 | 0.35 | 0.35 | 56 | 1048.1 |
| 20260905165158 | 88 | 212 | 2.0 | 3.0 | 0.00 | 0.35 | 0.35 | 54 | 1048.3 |
| 20260905164653 | 88 | 215 | 3.0 | 4.0 | 0.00 | 0.35 | 0.35 | 53 | 1048.2 |
| 20260905164153 | 88 | 226 | 1.0 | 3.0 | 0.00 | 0.35 | 0.35 | 52 | 1048.2 |
| 20260905163648 | 87 | 105 | 1.0 | 2.0 | 0.00 | 0.35 | 0.35 | 57 | 1048.0 |
| 20260905163145 | 88 | 223 | 2.0 | 6.0 | 0.00 | 0.35 | 0.35 | 54 | 1048.5 |
| 20260905162642 | 88 | 76 | 2.0 | 2.0 | 0.00 | 0.35 | 0.35 | 56 | 1048.2 |
| 20260905162141 | 87 | 168 | 1.0 | 3.0 | 0.00 | 0.35 | 0.35 | 58 | 1048.2 |
| 20260905161640 | 86 | 187 | 1.0 | 3.0 | 0.00 | 0.35 | 0.35 | 59 | 1048.2 |
| 20260905161139 | 87 | 193 | 4.0 | 6.0 | 0.00 | 0.35 | 0.35 | 54 | 1048.4 |
| 20260905160633 | 87 | 240 | 2.0 | 3.0 | 0.00 | 0.35 | 0.35 | 54 | 1048.5 |
| 20260905160132 | 86 | 88 | 2.0 | 4.0 | 0.00 | 0.35 | 0.35 | 58 | 1048.5 |
| 20260905155632 | 86 | 200 | 1.0 | 3.0 | 0.00 | 0.35 | 0.35 | 60 | 1048.4 |
| 20260905155132 | 86 | 221 | 1.0 | 6.0 | 0.00 | 0.35 | 0.35 | 60 | 1048.5 |
| 20260905154632 | 86 | 88 | 1.0 | 4.0 | 0.00 | 0.35 | 0.35 | 60 | 1048.5 |
| 20260905154127 | 87 | 132 | 1.0 | 2.0 | 0.00 | 0.35 | 0.35 | 58 | 1048.6 |
| 20260905153623 | 86 | 76 | 2.0 | 3.0 | 0.00 | 0.35 | 0.35 | 61 | 1048.7 |
| 20260905153118 | 85 | 110 | 1.0 | 4.0 | 0.00 | 0.35 | 0.35 | 60 | 1048.7 |
| 20260905152613 | 85 | 96 | 3.0 | 6.0 | 0.00 | 0.35 | 0.35 | 60 | 1048.7 |
| 20260905152108 | 85 | 90 | 3.0 | 3.0 | 0.00 | 0.35 | 0.35 | 62 | 1048.7 |
| 20260905151603 | 84 | 226 | 2.0 | 3.0 | 0.00 | 0.35 | 0.35 | 65 | 1048.8 |
| 20260905151058 | 83 | 215 | 1.0 | 4.0 | 0.00 | 0.35 | 0.35 | 65 | 1048.7 |
| 20260905150554 | 82 | 111 | 2.0 | 4.0 | 0.00 | 0.35 | 0.35 | 70 | 1048.7 |
| 20260905150052 | 82 | 218 | 1.0 | 3.0 | 0.00 | 0.35 | 0.35 | 68 | 1048.8 |
| 20260905145550 | 81 | 95 | 3.0 | 4.0 | 0.00 | 0.35 | 0.35 | 71 | 1048.9 |
| 20260905145050 | 81 | 102 | 3.0 | 4.0 | 0.00 | 0.35 | 0.35 | 71 | 1048.8 |
| 20260905144545 | 80 | 86 | 2.0 | 7.0 | 0.00 | 0.35 | 0.35 | 72 | 1049.0 |
| 20260905144044 | 80 | 98 | 2.0 | 3.0 | 0.00 | 0.35 | 0.35 | 72 | 1049.3 |
| 20260905143543 | 79 | 112 | 3.0 | 4.0 | 0.00 | 0.35 | 0.35 | 73 | 1049.0 |
| 20260905143039 | 79 | 99 | 3.0 | 4.0 | 0.00 | 0.35 | 0.35 | 73 | 1049.2 |
| 20260905142537 | 78 | 97 | 1.0 | 3.0 | 0.00 | 0.35 | 0.35 | 76 | 1049.3 |
| 20260905142032 | 79 | 95 | 2.0 | 7.0 | 0.00 | 0.35 | 0.35 | 75 | 1049.3 |
| 20260905141526 | 78 | 74 | 0.0 | 4.0 | 0.00 | 0.35 | 0.35 | 77 | 1049.3 |
| 20260905141023 | 77 | 63 | 2.0 | 4.0 | 0.00 | 0.35 | 0.35 | 79 | 1049.4 |
| 20260905140518 | 76 | 75 | 1.0 | 7.0 | 0.00 | 0.35 | 0.35 | 78 | 1049.3 |
| 20260905140017 | 76 | 77 | 1.0 | 3.0 | 0.00 | 0.35 | 0.35 | 79 | 1049.5 |
| 20260905135513 | 75 | 103 | 2.0 | 8.0 | 0.00 | 0.35 | 0.35 | 80 | 1049.6 |
| 20260905135008 | 75 | 71 | 2.0 | 3.0 | 0.00 | 0.35 | 0.35 | 80 | 1049.8 |
| 20260905134508 | 74 | 104 | 2.0 | 3.0 | 0.00 | 0.35 | 0.35 | 83 | 1049.4 |
| 20260905134006 | 72 | 64 | 1.0 | 3.0 | 0.00 | 0.35 | 0.35 | 85 | 1049.6 |
| 20260905133456 | 72 | 46 | 3.0 | 6.0 | 0.00 | 0.35 | 0.35 | 85 | 1049.3 |
| 20260905132955 | 72 | 101 | 2.0 | 4.0 | 0.00 | 0.35 | 0.35 | 86 | 1049.7 |
| 20260905132451 | 72 | 81 | 2.0 | 6.0 | 0.00 | 0.35 | 0.35 | 86 | 1049.7 |
| 20260905131951 | 72 | 84 | 1.0 | 6.0 | 0.00 | 0.35 | 0.35 | 87 | 1049.9 |
| 20260905131447 | 71 | 85 | 4.0 | 7.0 | 0.00 | 0.35 | 0.35 | 88 | 1050.0 |
| 20260905130942 | 71 | 74 | 1.0 | 4.0 | 0.00 | 0.35 | 0.35 | 90 | 1050.0 |
| 20260905130441 | 71 | 308 | 1.0 | 2.0 | 0.00 | 0.35 | 0.35 | 90 | 1050.3 |
| 20260905125941 | 71 | 41 | 2.0 | 4.0 | 0.00 | 0.35 | 0.35 | 90 | 1050.0 |
| 20260905125436 | 71 | 34 | 2.0 | 4.0 | 0.00 | 0.35 | 0.35 | 90 | 1050.2 |
| 20260905124931 | 71 | 43 | 2.0 | 6.0 | 0.00 | 0.35 | 0.35 | 90 | 1050.1 |
| 20260905124428 | 71 | 57 | 2.0 | 7.0 | 0.00 | 0.35 | 0.35 | 90 | 1050.1 |
| 20260905123928 | 71 | 344 | 3.0 | 4.0 | 0.00 | 0.35 | 0.35 | 90 | 1050.3 |
| 20260905123425 | 70 | 38 | 1.0 | 3.0 | 0.00 | 0.35 | 0.35 | 90 | 1050.4 |
| 20260905122919 | 70 | 344 | 4.0 | 7.0 | 0.00 | 0.35 | 0.35 | 90 | 1050.0 |
| 20260905122419 | 70 | 347 | 2.0 | 6.0 | 0.05 | 0.35 | 0.35 | 91 | 1049.8 |
| 20260905121915 | 70 | 310 | 3.0 | 3.0 | 0.24 | 0.35 | 0.35 | 92 | 1049.6 |
| 20260905121410 | 70 | 338 | 2.0 | 4.0 | 0.19 | 0.33 | 0.33 | 93 | 1049.7 |
| 20260905120909 | 71 | 354 | 1.0 | 2.0 | 0.42 | 0.31 | 0.31 | 92 | 1049.6 |
| 20260905120409 | 71 | 342 | 1.0 | 6.0 | 0.31 | 0.29 | 0.29 | 91 | 1049.7 |
| 20260905115904 | 71 | 323 | 1.0 | 3.0 | 0.24 | 0.24 | 0.24 | 92 | 1049.8 |
| 20260905115403 | 71 | 323 | 2.0 | 7.0 | 0.19 | 0.23 | 0.23 | 93 | 1050.2 |
| 20260905114859 | 70 | 315 | 6.0 | 7.0 | 0.07 | 0.20 | 0.20 | 93 | 1049.8 |
| 20260905114358 | 70 | 54 | 1.0 | 1.0 | 0.35 | 0.20 | 0.20 | 92 | 1049.4 |
| 20260905113857 | 71 | 93 | 2.0 | 2.0 | 0.59 | 0.19 | 0.19 | 91 | 1049.6 |
| 20260905113353 | 71 | 226 | 2.0 | 2.0 | 0.24 | 0.12 | 0.12 | 91 | 1050.2 |
| 20260905112848 | 71 | 310 | 1.0 | 1.0 | 0.12 | 0.09 | 0.09 | 90 | 1049.8 |
| 20260905112343 | 71 | 310 | 0.0 | 2.0 | 0.50 | 0.08 | 0.08 | 89 | 1049.8 |
| 20260905111839 | 72 | 306 | 5.0 | 11.0 | 0.35 | 0.06 | 0.06 | 87 | 1049.7 |
| 20260905111338 | 73 | 324 | 6.0 | 8.0 | 0.00 | 0.00 | 0.00 | 85 | 1049.6 |
| 20260905110838 | 74 | 309 | 7.0 | 14.0 | 0.00 | 0.00 | 0.00 | 82 | 1049.9 |
| 20260905110331 | 74 | 307 | 12.0 | 14.0 | 0.00 | 0.00 | 0.00 | 83 | 1049.7 |
| 20260905105827 | 74 | 341 | 8.0 | 14.0 | 0.00 | 0.00 | 0.00 | 83 | 1048.9 |
| 20260905105326 | 75 | 317 | 9.0 | 15.0 | 0.00 | 0.00 | 0.00 | 82 | 1048.8 |
| 20260905104820 | 76 | 317 | 12.0 | 15.0 | 0.00 | 0.00 | 0.00 | 82 | 1048.7 |
| 20260905104318 | 77 | 317 | 12.0 | 16.0 | 0.00 | 0.00 | 0.00 | 82 | 1048.4 |
| 20260905103817 | 77 | 60 | 10.0 | 13.0 | 0.00 | 0.00 | 0.00 | 84 | 1048.3 |
| 20260905103312 | 76 | 303 | 6.0 | 8.0 | 0.00 | 0.00 | 0.00 | 85 | 1048.2 |
| 20260905102808 | 73 | 303 | 6.0 | 9.0 | 0.00 | 0.00 | 0.00 | 92 | 1048.0 |
| 20260905102306 | 73 | 204 | 0.0 | 0.0 | 0.00 | 0.00 | 0.00 | 91 | 1047.2 |
| 20260905101804 | 74 | 204 | 0.0 | 0.0 | 0.00 | 0.00 | 0.00 | 91 | 1047.4 |
| 20260905101302 | 73 | 204 | 0.0 | 0.0 | 0.00 | 0.00 | 0.00 | 91 | 1047.2 |
| 20260905100758 | 73 | 203 | 1.0 | 1.0 | 0.00 | 0.00 | 0.00 | 90 | 1047.3 |
| 20260905100254 | 73 | 204 | 0.0 | 0.0 | 0.00 | 0.00 | 0.00 | 90 | 1047.5 |
| 20260905095753 | 73 | 203 | 1.0 | 1.0 | 0.00 | 0.00 | 0.00 | 90 | 1047.3 |
| 20260905095252 | 73 | 204 | 0.0 | 0.0 | 0.00 | 0.00 | 0.00 | 89 | 1047.5 |
| 20260905094747 | 74 | 204 | 0.0 | 0.0 | 0.00 | 0.00 | 0.00 | 89 | 1047.7 |
| 20260905094243 | 74 | 204 | 0.0 | 0.0 | 0.00 | 0.00 | 0.00 | 89 | 1047.5 |
| 20260905093742 | 74 | 204 | 0.0 | 0.0 | 0.00 | 0.00 | 0.00 | 89 | 1047.2 |
| 20260905093238 | 74 | 204 | 0.0 | 0.0 | 0.00 | 0.00 | 0.00 | 88 | 1047.3 |
| 20260905092733 | 74 | 204 | 1.0 | 1.0 | 0.00 | 0.00 | 0.00 | 86 | 1047.2 |
| 20260905092229 | 75 | 204 | 0.0 | 0.0 | 0.00 | 0.00 | 0.00 | 85 | 1047.5 |
| 20260905091728 | 76 | 204 | 0.0 | 0.0 | 0.00 | 0.00 | 0.00 | 84 | 1047.4 |
| 20260905091223 | 76 | 204 | 0.0 | 0.0 | 0.00 | 0.00 | 0.00 | 85 | 1047.2 |
| 20260905090722 | 76 | 204 | 0.0 | 0.0 | 0.00 | 0.00 | 0.00 | 85 | 1047.2 |
| 20260905090218 | 76 | 204 | 0.0 | 0.0 | 0.00 | 0.00 | 0.00 | 84 | 1047.1 |
| 20260905085717 | 76 | 204 | 0.0 | 0.0 | 0.00 | 0.00 | 0.00 | 84 | 1047.1 |
| 20260905085212 | 77 | 204 | 0.0 | 1.0 | 0.00 | 0.00 | 0.00 | 83 | 1047.3 |
| 20260905084712 | 77 | 204 | 0.0 | 0.0 | 0.00 | 0.00 | 0.00 | 82 | 1047.5 |
| 20260905084207 | 78 | 204 | 0.0 | 0.0 | 0.00 | 0.00 | 0.00 | 81 | 1047.3 |
| 20260905083707 | 78 | 204 | 1.0 | 2.0 | 0.00 | 0.00 | 0.00 | 81 | 1047.3 |
| 20260905083203 | 78 | 215 | 1.0 | 1.0 | 0.00 | 0.00 | 0.00 | 81 | 1047.1 |
| 20260905082659 | 78 | 215 | 1.0 | 1.0 | 0.00 | 0.00 | 0.00 | 81 | 1047.1 |
| 20260905082155 | 78 | 215 | 1.0 | 2.0 | 0.00 | 0.00 | 0.00 | 80 | 1047.2 |
| 20260905081655 | 78 | 213 | 1.0 | 2.0 | 0.00 | 0.00 | 0.00 | 79 | 1047.0 |
| 20260905081150 | 78 | 199 | 2.0 | 3.0 | 0.00 | 0.00 | 0.00 | 79 | 1046.9 |
| 20260905080649 | 78 | 201 | 2.0 | 2.0 | 0.00 | 0.00 | 0.00 | 80 | 1046.9 |
| 20260905080149 | 77 | 209 | 1.0 | 3.0 | 0.00 | 0.00 | 0.00 | 81 | 1046.8 |
| 20260905075648 | 76 | 175 | 1.0 | 2.0 | 0.00 | 0.00 | 0.00 | 83 | 1046.9 |
| 20260905075148 | 75 | 193 | 2.0 | 2.0 | 0.00 | 0.00 | 0.00 | 87 | 1047.2 |
| 20260905074646 | 74 | 195 | 0.0 | 0.0 | 0.00 | 0.00 | 0.00 | 88 | 1047.1 |
| 20260905074142 | 75 | 195 | 0.0 | 0.0 | 0.00 | 0.00 | 0.00 | 87 | 1047.3 |
| 20260905073638 | 75 | 195 | 0.0 | 1.0 | 0.00 | 0.00 | 0.00 | 86 | 1047.0 |
| 20260905073134 | 75 | 195 | 0.0 | 0.0 | 0.00 | 0.00 | 0.00 | 86 | 1047.2 |
| 20260905072633 | 75 | 195 | 0.0 | 0.0 | 0.00 | 0.00 | 0.00 | 86 | 1047.2 |
| 20260905072128 | 76 | 195 | 0.0 | 0.0 | 0.00 | 0.00 | 0.00 | 85 | 1047.4 |
| 20260905071625 | 76 | 195 | 0.0 | 1.0 | 0.00 | 0.00 | 0.00 | 85 | 1047.3 |
| 20260905071120 | 76 | 195 | 1.0 | 1.0 | 0.00 | 0.00 | 0.00 | 85 | 1047.4 |
| 20260905070615 | 75 | 195 | 0.0 | 1.0 | 0.00 | 0.00 | 0.00 | 87 | 1047.5 |
| 20260905070111 | 74 | 196 | 1.0 | 1.0 | 0.00 | 0.00 | 0.00 | 88 | 1047.6 |
| 20260905065609 | 74 | 196 | 0.0 | 1.0 | 0.00 | 0.00 | 0.00 | 89 | 1047.6 |
| 20260905065105 | 74 | 195 | 0.0 | 0.0 | 0.00 | 0.00 | 0.00 | 90 | 1047.6 |
| 20260905064604 | 74 | 196 | 0.0 | 0.0 | 0.00 | 0.00 | 0.00 | 90 | 1047.8 |
| 20260905064100 | 74 | 196 | 0.0 | 0.0 | 0.00 | 0.00 | 0.00 | 90 | 1047.9 |
| 20260905063558 | 74 | 195 | 0.0 | 0.0 | 0.00 | 0.00 | 0.00 | 89 | 1048.1 |
| 20260905063056 | 74 | 196 | 0.0 | 0.0 | 0.00 | 0.00 | 0.00 | 89 | 1048.0 |
| 20260905062551 | 74 | 195 | 1.0 | 1.0 | 0.00 | 0.00 | 0.00 | 89 | 1047.9 |
| 20260905062050 | 74 | 196 | 0.0 | 0.0 | 0.00 | 0.00 | 0.00 | 88 | 1048.1 |
| 20260905061545 | 74 | 196 | 0.0 | 1.0 | 0.00 | 0.00 | 0.00 | 88 | 1048.0 |
| 20260905061044 | 74 | 202 | 2.0 | 2.0 | 0.00 | 0.00 | 0.00 | 89 | 1048.1 |
| 20260905060541 | 74 | 216 | 0.0 | 0.0 | 0.00 | 0.00 | 0.00 | 89 | 1048.1 |
| 20260905060036 | 74 | 216 | 0.0 | 0.0 | 0.00 | 0.00 | 0.00 | 88 | 1048.2 |
| 20260905055535 | 74 | 217 | 0.0 | 0.0 | 0.00 | 0.00 | 0.00 | 87 | 1048.3 |
| 20260905055030 | 74 | 216 | 0.0 | 0.0 | 0.00 | 0.00 | 0.00 | 87 | 1048.2 |
| 20260905054526 | 75 | 216 | 0.0 | 0.0 | 0.00 | 0.00 | 0.00 | 86 | 1048.5 |
| 20260905054021 | 75 | 216 | 0.0 | 0.0 | 0.00 | 0.00 | 0.00 | 87 | 1048.5 |
| 20260905053515 | 75 | 217 | 0.0 | 0.0 | 0.00 | 0.00 | 0.00 | 87 | 1048.3 |
| 20260905053011 | 75 | 216 | 0.0 | 1.0 | 0.00 | 0.00 | 0.00 | 87 | 1048.5 |
| 20260905052510 | 75 | 216 | 1.0 | 1.0 | 0.00 | 0.00 | 0.00 | 87 | 1048.4 |
| 20260905052010 | 75 | 216 | 0.0 | 0.0 | 0.00 | 0.00 | 0.00 | 86 | 1048.7 |
| 20260905051505 | 75 | 217 | 0.0 | 0.0 | 0.00 | 0.00 | 0.00 | 85 | 1048.6 |
| 20260905051003 | 75 | 217 | 0.0 | 0.0 | 0.00 | 0.00 | 0.00 | 85 | 1048.6 |
| 20260905050458 | 75 | 216 | 0.0 | 0.0 | 0.00 | 0.00 | 0.00 | 85 | 1048.6 |
| 20260905045954 | 75 | 216 | 0.0 | 0.0 | 0.00 | 0.00 | 0.00 | 85 | 1048.7 |
| 20260905045449 | 76 | 216 | 0.0 | 0.0 | 0.00 | 0.00 | 0.00 | 85 | 1048.7 |
| 20260905044945 | 75 | 217 | 0.0 | 0.0 | 0.00 | 0.00 | 0.00 | 85 | 1048.6 |
| 20260905044444 | 75 | 216 | 0.0 | 0.0 | 0.00 | 0.00 | 0.00 | 84 | 1048.6 |
| 20260905043938 | 76 | 217 | 0.0 | 0.0 | 0.00 | 0.00 | 0.00 | 84 | 1048.6 |
| 20260905043437 | 76 | 217 | 0.0 | 0.0 | 0.00 | 0.00 | 0.00 | 84 | 1048.6 |
| 20260905042932 | 76 | 217 | 1.0 | 1.0 | 0.00 | 0.00 | 0.00 | 84 | 1048.6 |
| 20260905042427 | 76 | 217 | 0.0 | 0.0 | 0.00 | 0.00 | 0.00 | 83 | 1048.5 |
| 20260905041922 | 76 | 217 | 0.0 | 0.0 | 0.00 | 0.00 | 0.00 | 84 | 1048.5 |
| 20260905041418 | 76 | 217 | 0.0 | 0.0 | 0.00 | 0.00 | 0.00 | 84 | 1048.7 |
| 20260905040919 | 76 | 217 | 0.0 | 0.0 | 0.00 | 0.00 | 0.00 | 84 | 1048.6 |
| 20260905040418 | 76 | 217 | 0.0 | 0.0 | 0.00 | 0.00 | 0.00 | 83 | 1048.6 |
| 20260905035917 | 76 | 217 | 0.0 | 0.0 | 0.00 | 0.00 | 0.00 | 83 | 1048.6 |
| 20260905035413 | 77 | 217 | 0.0 | 1.0 | 0.00 | 0.00 | 0.00 | 82 | 1048.7 |
| 20260905034910 | 77 | 217 | 0.0 | 0.0 | 0.00 | 0.00 | 0.00 | 81 | 1048.6 |
| 20260905034405 | 77 | 217 | 0.0 | 0.0 | 0.00 | 0.00 | 0.00 | 80 | 1048.7 |
| 20260905033903 | 78 | 216 | 0.0 | 0.0 | 0.00 | 0.00 | 0.00 | 80 | 1048.8 |
| 20260905033359 | 78 | 216 | 0.0 | 1.0 | 0.00 | 0.00 | 0.00 | 81 | 1048.6 |
| 20260905032858 | 78 | 217 | 0.0 | 1.0 | 0.00 | 0.00 | 0.00 | 80 | 1048.5 |
| 20260905032354 | 78 | 185 | 2.0 | 2.0 | 0.00 | 0.00 | 0.00 | 80 | 1048.7 |
| 20260905031848 | 78 | 253 | 0.0 | 0.0 | 0.00 | 0.00 | 0.00 | 80 | 1048.7 |